Decoded Metar for CYKL (SCHEFFERVILLE in QC, CANADA) (IATA:YKL) | Meteo·Mobile Aviation Weather
aviador You're here:

CYKL Decoded Metar

SCHEFFERVILLE in QC, CANADA
Report Time2019-02-22 13:56:00
UTC Time2019-02-22 14:09:25
Flight Rules mvfr MVFR
Wind310° at 14 Gusting to 24 kt
W.Decomp.*RWY 36: 12.4 kt HW 6.6 kt LCW
W.Rank310° ranks 5
Current wind is above 310° avg. (9.8)
Visibility9656 m
Phenomena:Haze
Clouds:Scattered 021 Hf
Broken 028 Hf
Expected CloudBase > 2,000 ft AGL from Temp-Dew spread
Ceiling2,800 ft
Temp-25°C (ISA -37)
Dew Point-30°C (63% RH)
AAT-33.9°C
QNH1008 hPa
Density Alt-2,825 ft
Elevation1,709 ft
Report Wrong Elevation
Raw Report
SPECI CYKL 221356Z AUTO 31014G24KT 6SM HZ SCT021 BKN028 M25/M30 A2976
RMK SLP142=

Extra information for CYKL:More info

Metar Taf Metar & Taf Last 4 Metars F.Rules Stats Wind Profile Meteogram Temp Stats Airport Information Weather charts Add Link Nearby VenuesMetar ALERT Operation Metar Decoded Social comments